Time;durP1;ratioP1;P1;durP2;ratioP2;P2;SDS_P1;SDS_P2;PMS_P1;PMS_P2;Temp;Humidity;BMP_temperature;BMP_pressure;BME280_temperature;BME280_humidity;BME280_pressure;Samples;Min_cycle;Max_cycle;Signal;HPM_P1;HPM_P2
2021/01/01 00:00:36;;;;;;;24.00;13.80;;;2.50;99.90;;;;;;4998238;28;20410;-73
2021/01/01 00:03:03;;;;;;;22.20;13.00;;;2.40;99.90;;;;;;4977692;28;20034;-74
2021/01/01 00:05:31;;;;;;;40.60;16.88;;;2.40;99.90;;;;;;4979532;28;20065;-74
2021/01/01 00:07:57;;;;;;;24.88;14.43;;;2.40;99.90;;;;;;4998196;28;20062;-76
2021/01/01 00:10:23;;;;;;;26.63;13.70;;;2.40;99.90;;;;;;4981060;28;20136;-74
2021/01/01 00:12:48;;;;;;;30.17;16.45;;;2.40;99.90;;;;;;4981720;28;20113;-73
2021/01/01 00:15:15;;;;;;;26.70;14.52;;;2.50;99.90;;;;;;4978798;28;20959;-74
2021/01/01 00:17:41;;;;;;;28.45;15.25;;;2.50;99.90;;;;;;4973608;28;20505;-74
2021/01/01 00:20:09;;;;;;;29.15;15.90;;;2.50;99.90;;;;;;4991524;28;20042;-74
2021/01/01 00:22:35;;;;;;;24.27;13.95;;;2.50;99.90;;;;;;4982928;28;20815;-74
2021/01/01 00:25:02;;;;;;;29.83;15.50;;;2.50;99.90;;;;;;4979688;28;20042;-74
2021/01/01 00:27:29;;;;;;;26.30;14.23;;;2.50;99.90;;;;;;4979634;28;20034;-74
2021/01/01 00:29:55;;;;;;;26.25;14.60;;;2.50;99.90;;;;;;4975366;28;20238;-74
2021/01/01 00:32:21;;;;;;;27.67;14.32;;;2.50;99.90;;;;;;4969359;28;20035;-74
2021/01/01 00:34:47;;;;;;;26.27;14.07;;;2.40;99.90;;;;;;4996630;28;20026;-74
2021/01/01 00:37:12;;;;;;;25.98;14.07;;;2.40;99.90;;;;;;4979942;28;20199;-74
2021/01/01 00:39:38;;;;;;;27.10;14.43;;;2.40;99.90;;;;;;4981314;28;20396;-74
2021/01/01 00:42:04;;;;;;;27.88;14.13;;;2.40;99.90;;;;;;4981876;28;20046;-74
2021/01/01 00:44:31;;;;;;;26.55;14.48;;;2.40;99.90;;;;;;4976466;28;20577;-74
2021/01/01 00:46:57;;;;;;;33.22;16.50;;;2.40;99.90;;;;;;4979974;28;20507;-74
2021/01/01 00:49:23;;;;;;;32.00;17.13;;;2.40;99.90;;;;;;4980629;28;20432;-74
2021/01/01 00:51:48;;;;;;;33.85;16.90;;;2.40;99.90;;;;;;4983228;28;20037;-72
2021/01/01 00:54:14;;;;;;;32.88;17.08;;;2.40;99.90;;;;;;4972030;28;20129;-73
2021/01/01 00:56:40;;;;;;;39.53;20.90;;;2.40;99.90;;;;;;4978943;28;20038;-72
2021/01/01 00:59:06;;;;;;;43.85;21.42;;;2.30;99.90;;;;;;4962254;28;20046;-73
2021/01/01 01:01:32;;;;;;;38.08;19.90;;;2.30;99.90;;;;;;4981440;28;20033;-73
2021/01/01 01:03:58;;;;;;;41.13;21.30;;;2.30;99.90;;;;;;4976092;28;20034;-73
2021/01/01 01:06:24;;;;;;;40.88;21.08;;;2.30;99.90;;;;;;4979984;28;20036;-72
2021/01/01 01:08:50;;;;;;;40.40;20.30;;;2.30;99.90;;;;;;4979708;28;20121;-79
2021/01/01 01:11:26;;;;;;;37.25;20.10;;;2.30;99.90;;;;;;4971503;28;20048;-79
2021/01/01 01:13:53;;;;;;;37.45;20.35;;;2.30;99.90;;;;;;4984344;28;21133;-79
2021/01/01 01:16:21;;;;;;;41.55;20.60;;;2.30;99.90;;;;;;4976798;28;20045;-74
2021/01/01 01:18:47;;;;;;;38.20;20.63;;;2.30;99.90;;;;;;4969163;28;20035;-75
2021/01/01 01:21:13;;;;;;;35.85;19.95;;;2.30;99.90;;;;;;4976350;28;20046;-76
2021/01/01 01:23:38;;;;;;;39.53;21.02;;;2.30;99.90;;;;;;4993470;28;20058;-70
2021/01/01 01:26:04;;;;;;;36.42;20.38;;;2.30;99.90;;;;;;4967787;28;20187;-70
2021/01/01 01:28:30;;;;;;;40.60;20.67;;;2.30;99.90;;;;;;4981319;28;20403;-70
2021/01/01 01:30:55;;;;;;;47.35;22.83;;;2.30;99.90;;;;;;4979347;28;20069;-74
2021/01/01 01:33:21;;;;;;;41.97;20.58;;;2.30;99.90;;;;;;4996523;28;20116;-74
2021/01/01 01:35:47;;;;;;;37.35;19.63;;;2.30;99.90;;;;;;4974660;28;20034;-74
2021/01/01 01:38:12;;;;;;;37.60;19.33;;;2.30;99.90;;;;;;4974008;28;20038;-74
2021/01/01 01:40:38;;;;;;;34.20;18.35;;;2.30;99.90;;;;;;4987364;28;20038;-74
2021/01/01 01:43:04;;;;;;;34.58;17.77;;;2.30;99.90;;;;;;4969939;28;20626;-74
2021/01/01 01:45:30;;;;;;;34.05;17.88;;;2.30;99.90;;;;;;4980733;28;20038;-74
2021/01/01 01:48:01;;;;;;;35.92;17.83;;;2.30;99.90;;;;;;4977549;28;20058;-74
2021/01/01 01:50:28;;;;;;;33.30;17.80;;;2.30;99.90;;;;;;4974571;28;20072;-74
2021/01/01 01:52:54;;;;;;;33.70;17.00;;;2.30;99.90;;;;;;4977338;28;20022;-74
2021/01/01 01:55:20;;;;;;;32.95;17.67;;;2.30;99.90;;;;;;4952721;28;20027;-74
2021/01/01 01:57:46;;;;;;;32.90;16.90;;;2.30;99.90;;;;;;4973704;28;20833;-74
2021/01/01 02:03:02;;;;;;;31.08;17.02;;;2.30;99.90;;;;;;4948685;28;20049;-74
2021/01/01 02:05:28;;;;;;;32.65;17.27;;;2.30;99.90;;;;;;4988899;28;20813;-74
2021/01/01 02:07:55;;;;;;;30.77;17.05;;;2.30;99.90;;;;;;4966482;28;20035;-74
2021/01/01 02:10:21;;;;;;;31.52;16.50;;;2.40;99.90;;;;;;4977017;28;20038;-74
2021/01/01 02:12:48;;;;;;;29.83;16.45;;;2.40;99.90;;;;;;4977902;28;20034;-74
2021/01/01 02:15:14;;;;;;;32.97;17.10;;;2.40;99.90;;;;;;4959362;28;20061;-74
2021/01/01 02:17:39;;;;;;;30.73;16.55;;;2.40;99.90;;;;;;4975480;28;20054;-74
2021/01/01 02:20:10;;;;;;;33.20;17.35;;;2.40;99.90;;;;;;4964779;28;20198;-77
2021/01/01 02:22:39;;;;;;;30.00;16.58;;;2.40;99.90;;;;;;4978033;28;20220;-73
2021/01/01 02:25:08;;;;;;;35.05;17.40;;;2.40;99.90;;;;;;4975699;28;20030;-73
2021/01/01 02:27:33;;;;;;;33.03;16.80;;;2.30;99.90;;;;;;4979482;28;20096;-74
2021/01/01 02:29:59;;;;;;;33.15;17.70;;;2.40;99.90;;;;;;4977944;28;20030;-74
2021/01/01 02:32:25;;;;;;;29.63;16.30;;;2.30;99.90;;;;;;4977826;28;20737;-74
2021/01/01 02:34:50;;;;;;;30.80;17.17;;;2.30;99.90;;;;;;4988776;28;20671;-74
2021/01/01 02:37:16;;;;;;;33.88;17.25;;;2.40;99.90;;;;;;4978732;28;20077;-74
2021/01/01 02:39:42;;;;;;;30.40;16.58;;;2.30;99.90;;;;;;4971914;28;20443;-74
2021/01/01 02:42:08;;;;;;;31.65;17.08;;;2.30;99.90;;;;;;4976763;28;20069;-74
2021/01/01 02:44:33;;;;;;;33.10;17.50;;;2.30;99.90;;;;;;4975283;28;20597;-74
2021/01/01 02:47:03;;;;;;;31.85;16.67;;;2.40;99.90;;;;;;4978850;28;20549;-74
2021/01/01 02:49:30;;;;;;;32.17;16.77;;;2.40;99.90;;;;;;4994193;28;20030;-74
2021/01/01 02:51:56;;;;;;;30.63;16.35;;;2.40;99.90;;;;;;4979863;28;20030;-74
2021/01/01 02:54:21;;;;;;;34.40;17.52;;;2.30;99.90;;;;;;4979547;28;20491;-75
2021/01/01 02:56:47;;;;;;;30.63;16.50;;;2.30;99.90;;;;;;4966604;28;20833;-74
2021/01/01 02:59:13;;;;;;;32.67;16.88;;;2.30;99.90;;;;;;4976792;28;20376;-74
2021/01/01 03:01:39;;;;;;;32.03;17.33;;;2.30;99.90;;;;;;4973948;28;20499;-74
2021/01/01 03:04:04;;;;;;;32.33;16.92;;;2.30;99.90;;;;;;4975157;28;20034;-74
2021/01/01 03:06:30;;;;;;;31.48;16.95;;;2.30;99.90;;;;;;4970245;28;20772;-74
2021/01/01 03:08:56;;;;;;;30.40;16.88;;;2.30;99.90;;;;;;4986923;28;20069;-74
2021/01/01 03:11:22;;;;;;;33.58;17.80;;;2.30;99.90;;;;;;4976636;28;20053;-72
2021/01/01 03:13:47;;;;;;;38.90;18.27;;;2.20;99.90;;;;;;4976472;28;20100;-74
2021/01/01 03:16:13;;;;;;;32.17;16.65;;;2.20;99.90;;;;;;4974008;28;20031;-75
2021/01/01 03:18:39;;;;;;;32.85;17.45;;;2.20;99.90;;;;;;4967579;28;20062;-75
2021/01/01 03:21:04;;;;;;;32.75;17.52;;;2.30;99.90;;;;;;4963523;28;20031;-75
2021/01/01 03:23:30;;;;;;;29.40;16.48;;;2.20;99.90;;;;;;4972207;28;20491;-75
2021/01/01 03:25:56;;;;;;;30.23;16.52;;;2.30;99.90;;;;;;4973638;28;20037;-74
2021/01/01 03:28:21;;;;;;;30.17;16.80;;;2.30;99.90;;;;;;4971064;28;20105;-74
2021/01/01 03:30:47;;;;;;;35.78;18.85;;;2.30;99.90;;;;;;4971767;28;20046;-74
2021/01/01 03:33:13;;;;;;;31.00;16.67;;;2.30;99.90;;;;;;4974230;28;20039;-74
2021/01/01 03:35:39;;;;;;;31.35;16.98;;;2.30;99.90;;;;;;4968015;28;20042;-74
2021/01/01 03:38:05;;;;;;;29.83;16.65;;;2.30;99.90;;;;;;4973064;28;20034;-74
2021/01/01 03:40:31;;;;;;;30.55;16.10;;;2.30;99.90;;;;;;4971679;28;20060;-74
2021/01/01 03:42:57;;;;;;;29.83;16.55;;;2.20;99.90;;;;;;4959164;28;20030;-75
2021/01/01 03:45:23;;;;;;;29.40;16.08;;;2.30;99.90;;;;;;4968791;28;20084;-74
2021/01/01 03:47:49;;;;;;;32.38;17.08;;;2.20;99.90;;;;;;4971185;28;20038;-74
2021/01/01 03:50:15;;;;;;;29.85;16.23;;;2.20;99.90;;;;;;4972052;28;20026;-74
2021/01/01 03:52:40;;;;;;;34.40;17.73;;;2.20;99.90;;;;;;4969058;28;20057;-73
2021/01/01 03:55:07;;;;;;;33.05;16.70;;;2.20;99.90;;;;;;4972205;28;20037;-74
2021/01/01 03:57:32;;;;;;;31.35;16.60;;;2.20;99.90;;;;;;4975396;28;20144;-74
2021/01/01 03:59:58;;;;;;;33.78;16.90;;;2.20;99.90;;;;;;4975139;28;20105;-74
2021/01/01 04:02:24;;;;;;;29.77;16.40;;;2.20;99.90;;;;;;4995488;28;20462;-74
2021/01/01 04:04:50;;;;;;;29.95;16.48;;;2.10;99.90;;;;;;4974597;28;20129;-74
2021/01/01 04:07:16;;;;;;;32.58;17.65;;;2.20;99.90;;;;;;4964838;28;20911;-74
2021/01/01 04:09:42;;;;;;;35.95;17.70;;;2.10;99.90;;;;;;4973344;28;20041;-75
2021/01/01 04:12:08;;;;;;;35.40;17.63;;;2.10;99.90;;;;;;4969987;28;20101;-74
2021/01/01 04:14:34;;;;;;;36.55;17.38;;;2.10;99.90;;;;;;4971789;28;20046;-74
2021/01/01 04:17:00;;;;;;;31.25;17.55;;;2.10;99.90;;;;;;4975752;28;20053;-74
2021/01/01 04:19:25;;;;;;;33.83;17.70;;;2.10;99.90;;;;;;4979987;28;20038;-74
2021/01/01 04:21:51;;;;;;;31.70;17.02;;;2.20;99.90;;;;;;4979177;28;20038;-74
2021/01/01 04:24:18;;;;;;;32.80;17.83;;;2.20;99.90;;;;;;4980887;28;20030;-74
2021/01/01 04:26:45;;;;;;;32.83;17.33;;;2.20;99.90;;;;;;4972092;28;20800;-74
2021/01/01 04:29:11;;;;;;;31.40;17.00;;;2.20;99.90;;;;;;4975926;28;20034;-74
2021/01/01 04:31:37;;;;;;;33.13;16.95;;;2.20;99.90;;;;;;4973261;28;20058;-74
2021/01/01 04:34:06;;;;;;;32.25;17.48;;;2.20;99.90;;;;;;4973082;28;20034;-74
2021/01/01 04:36:33;;;;;;;33.63;16.67;;;2.20;99.90;;;;;;4988166;28;20042;-74
2021/01/01 04:38:59;;;;;;;31.08;17.25;;;2.20;99.90;;;;;;4981414;28;20820;-73
2021/01/01 04:41:26;;;;;;;31.08;16.55;;;2.10;99.90;;;;;;4967081;28;20045;-75
2021/01/01 04:43:52;;;;;;;33.53;16.70;;;2.10;99.90;;;;;;4978049;28;20042;-73
2021/01/01 04:46:19;;;;;;;32.40;17.48;;;2.10;99.90;;;;;;4968760;28;20052;-74
2021/01/01 04:48:45;;;;;;;33.80;16.92;;;2.10;99.90;;;;;;4976925;28;20027;-74
2021/01/01 04:51:12;;;;;;;31.23;16.98;;;2.10;99.90;;;;;;4971018;28;20038;-74
2021/01/01 04:53:39;;;;;;;32.15;17.13;;;2.10;99.90;;;;;;4978407;28;20564;-75
2021/01/01 04:56:06;;;;;;;32.15;17.33;;;2.10;99.90;;;;;;4978312;28;20375;-75
2021/01/01 04:58:33;;;;;;;33.30;17.38;;;2.10;99.90;;;;;;4977433;28;20042;-74
2021/01/01 05:00:58;;;;;;;38.05;19.13;;;2.10;99.90;;;;;;4980044;28;20769;-74
2021/01/01 05:03:25;;;;;;;31.88;16.63;;;2.20;99.90;;;;;;4949368;28;20037;-74
2021/01/01 05:05:52;;;;;;;34.10;17.20;;;2.20;99.90;;;;;;4973080;28;20030;-74
2021/01/01 05:08:18;;;;;;;38.35;18.17;;;2.20;99.90;;;;;;4978615;28;20026;-74
2021/01/01 05:10:45;;;;;;;33.53;18.15;;;2.10;99.90;;;;;;4989165;28;20129;-75
2021/01/01 05:13:19;;;;;;;33.15;18.33;;;2.10;99.90;;;;;;4973525;28;20034;-74
2021/01/01 05:15:47;;;;;;;34.22;18.30;;;2.10;99.90;;;;;;4990034;28;20900;-74
2021/01/01 05:18:22;;;;;;;34.47;17.42;;;2.10;99.90;;;;;;4966869;28;20046;-74
2021/01/01 05:20:48;;;;;;;;;;;2.10;99.90;;;;;;4975227;28;20039;-75
2021/01/01 05:23:19;;;;;;;31.25;17.38;;;2.10;99.90;;;;;;4992624;28;19910;-74
2021/01/01 05:25:46;;;;;;;34.17;17.67;;;2.20;99.90;;;;;;4974584;28;20037;-74
2021/01/01 05:28:13;;;;;;;35.33;17.92;;;2.10;99.90;;;;;;4971942;28;20072;-75
2021/01/01 05:30:40;;;;;;;33.33;17.48;;;2.20;99.90;;;;;;4971446;28;20070;-74
2021/01/01 05:33:08;;;;;;;38.38;18.80;;;2.20;99.90;;;;;;4973347;28;20037;-75
2021/01/01 05:35:34;;;;;;;40.35;19.48;;;2.20;99.90;;;;;;4970204;28;20150;-74
2021/01/01 05:38:20;;;;;;;33.65;17.27;;;2.10;99.90;;;;;;4978344;28;20070;-74
2021/01/01 05:40:49;;;;;;;32.03;17.27;;;2.00;99.90;;;;;;4971311;28;20209;-74
2021/01/01 05:43:23;;;;;;;33.75;17.65;;;2.00;99.90;;;;;;4970925;28;20288;-75
2021/01/01 05:45:49;;;;;;;35.20;18.10;;;2.00;99.90;;;;;;4986543;28;20042;-74
2021/01/01 05:48:18;;;;;;;36.28;19.08;;;2.00;99.90;;;;;;4974220;28;20026;-74
2021/01/01 05:50:45;;;;;;;33.30;17.35;;;2.00;99.90;;;;;;4993426;28;20826;-75
2021/01/01 05:53:18;;;;;;;33.75;17.02;;;2.00;99.90;;;;;;4991469;28;20039;-73
2021/01/01 05:55:45;;;;;;;37.28;18.85;;;1.90;99.90;;;;;;4990665;28;20038;-74
2021/01/01 05:58:22;;;;;;;37.00;18.85;;;1.90;99.90;;;;;;4969305;28;20769;-74
2021/01/01 06:00:54;;;;;;;36.13;18.70;;;1.90;99.90;;;;;;4966092;28;20423;-73
2021/01/01 06:03:34;;;;;;;34.00;17.85;;;1.90;99.90;;;;;;4972671;28;20041;-74
2021/01/01 06:06:06;;;;;;;35.30;18.27;;;1.90;99.90;;;;;;4975711;28;20027;-74
2021/01/01 06:08:32;;;;;;;35.05;17.73;;;1.90;99.90;;;;;;4974113;28;20034;-74
2021/01/01 06:11:03;;;;;;;34.25;17.45;;;1.90;99.90;;;;;;4980568;28;20042;-74
2021/01/01 06:13:34;;;;;;;35.97;18.55;;;1.90;99.90;;;;;;4967431;28;20112;-74
2021/01/01 06:16:02;;;;;;;38.28;17.95;;;1.90;99.90;;;;;;4974155;28;20038;-74
2021/01/01 06:18:33;;;;;;;35.33;18.48;;;1.90;99.90;;;;;;4963110;28;20063;-75
2021/01/01 06:21:04;;;;;;;34.35;17.92;;;1.90;99.90;;;;;;4958935;28;20503;-74
2021/01/01 06:23:37;;;;;;;37.78;20.10;;;1.90;99.90;;;;;;4960555;28;20034;-74
2021/01/01 06:26:05;;;;;;;35.20;18.33;;;1.90;99.90;;;;;;4952426;28;20049;-74
2021/01/01 06:28:32;;;;;;;34.83;18.73;;;1.90;99.90;;;;;;4953447;28;20066;-74
2021/01/01 06:31:00;;;;;;;40.42;19.38;;;1.90;99.90;;;;;;4965347;28;20034;-74
2021/01/01 06:33:26;;;;;;;35.50;17.92;;;1.80;99.90;;;;;;4968233;28;20042;-74
2021/01/01 06:35:52;;;;;;;37.70;19.60;;;1.80;99.90;;;;;;4962384;28;20565;-74
2021/01/01 06:38:38;;;;;;;34.22;18.98;;;1.80;99.90;;;;;;4967283;28;20039;-74
2021/01/01 06:41:13;;;;;;;37.88;18.02;;;1.80;99.90;;;;;;4957579;28;20181;-74
2021/01/01 06:43:50;;;;;;;33.85;18.88;;;1.80;99.90;;;;;;4961888;28;20769;-74
2021/01/01 06:46:40;;;;;;;37.30;18.83;;;1.80;99.90;;;;;;4961250;28;20034;-74
2021/01/01 06:49:29;;;;;;;34.30;18.00;;;1.70;99.90;;;;;;4966501;28;20038;-74
2021/01/01 06:52:15;;;;;;;37.30;19.17;;;1.70;99.90;;;;;;4965652;28;20041;-73
2021/01/01 06:54:56;;;;;;;;;;;1.70;99.90;;;;;;4964848;28;20046;-74
2021/01/01 06:57:24;;;;;;;36.28;18.70;;;1.80;99.90;;;;;;4962366;28;19921;-74
2021/01/01 06:59:51;;;;;;;39.63;19.52;;;1.80;99.90;;;;;;4980973;28;20091;-74
2021/01/01 07:02:35;;;;;;;34.22;19.23;;;1.80;99.90;;;;;;4963703;28;20030;-74
2021/01/01 07:05:01;;;;;;;41.25;19.98;;;1.80;99.90;;;;;;4979216;28;20041;-74
2021/01/01 07:07:38;;;;;;;39.15;19.60;;;1.90;99.90;;;;;;4962578;28;20034;-74
2021/01/01 07:10:05;;;;;;;34.30;18.83;;;1.90;99.90;;;;;;4984690;28;20035;-73
2021/01/01 07:12:31;;;;;;;38.03;19.90;;;1.90;99.90;;;;;;4957529;28;20047;-74
2021/01/01 07:14:56;;;;;;;35.45;20.02;;;1.90;99.90;;;;;;4962607;28;20041;-74
2021/01/01 07:17:22;;;;;;;39.53;19.90;;;1.90;99.90;;;;;;4960405;28;20043;-74
2021/01/01 07:19:49;;;;;;;35.05;19.08;;;1.90;99.90;;;;;;4947111;28;20045;-73
2021/01/01 07:22:14;;;;;;;40.65;20.42;;;1.90;99.90;;;;;;4962261;28;20035;-74
2021/01/01 07:24:43;;;;;;;37.67;20.65;;;1.90;99.90;;;;;;4957854;28;20708;-74
2021/01/01 07:27:09;;;;;;;37.50;19.05;;;2.00;99.90;;;;;;4963791;28;20133;-74
2021/01/01 07:29:35;;;;;;;39.08;20.42;;;2.00;99.90;;;;;;4962347;28;20948;-73
2021/01/01 07:32:01;;;;;;;40.65;22.65;;;1.90;99.90;;;;;;4962840;28;20034;-73
2021/01/01 07:34:27;;;;;;;39.72;21.48;;;1.90;99.90;;;;;;4959064;28;20042;-73
2021/01/01 07:36:53;;;;;;;37.50;20.38;;;2.00;99.90;;;;;;4967476;28;20046;-73
2021/01/01 07:39:29;;;;;;;38.88;20.38;;;2.00;99.90;;;;;;4983442;28;20039;-71
2021/01/01 07:42:05;;;;;;;36.92;20.73;;;2.00;99.90;;;;;;4967547;28;20074;-71
2021/01/01 07:44:31;;;;;;;41.17;20.17;;;2.00;99.90;;;;;;4970839;28;20070;-70
2021/01/01 07:46:57;;;;;;;40.22;21.30;;;1.90;99.90;;;;;;4969813;28;20875;-73
2021/01/01 07:49:30;;;;;;;39.00;20.10;;;1.90;99.90;;;;;;4962452;28;20030;-72
2021/01/01 07:52:04;;;;;;;38.78;19.90;;;2.00;99.90;;;;;;4967925;28;20139;-73
2021/01/01 07:54:30;;;;;;;38.85;19.67;;;2.00;99.90;;;;;;4968199;28;20035;-72
2021/01/01 07:57:05;;;;;;;38.03;19.58;;;2.10;99.90;;;;;;4966722;28;20510;-72
2021/01/01 07:59:35;;;;;;;38.90;19.50;;;2.10;99.90;;;;;;4975588;28;20045;-72
2021/01/01 08:02:00;;;;;;;36.90;19.63;;;2.00;99.90;;;;;;4969233;28;20039;-73
2021/01/01 08:04:29;;;;;;;35.90;18.95;;;2.00;99.90;;;;;;4965371;28;20446;-72
2021/01/01 08:06:55;;;;;;;40.38;19.33;;;2.10;99.90;;;;;;4963735;28;20251;-74
2021/01/01 08:09:21;;;;;;;35.78;19.55;;;2.00;99.90;;;;;;4964240;28;20431;-73
2021/01/01 08:11:47;;;;;;;41.92;21.38;;;2.20;99.90;;;;;;4967123;28;20080;-74
2021/01/01 08:14:21;;;;;;;43.00;20.23;;;2.20;99.90;;;;;;4969974;28;20141;-71
2021/01/01 08:16:46;;;;;;;41.83;20.77;;;2.20;99.90;;;;;;4972976;28;20475;-72
2021/01/01 08:19:21;;;;;;;38.13;19.90;;;2.20;99.90;;;;;;4969806;28;20041;-72
2021/01/01 08:21:53;;;;;;;43.60;20.85;;;2.20;99.90;;;;;;4968370;28;20122;-70
2021/01/01 08:24:21;;;;;;;40.45;19.15;;;2.20;99.90;;;;;;4971333;28;20062;-70
2021/01/01 08:26:48;;;;;;;39.97;21.33;;;2.40;99.90;;;;;;4964417;28;20030;-72
2021/01/01 08:29:15;;;;;;;40.70;20.52;;;2.40;99.90;;;;;;4963114;28;20487;-71
2021/01/01 08:31:43;;;;;;;39.67;20.80;;;2.40;99.90;;;;;;4982017;28;20403;-76
2021/01/01 08:34:10;;;;;;;45.20;22.60;;;2.30;99.90;;;;;;4966704;28;20038;-72
2021/01/01 08:36:35;;;;;;;39.03;20.48;;;2.30;99.90;;;;;;4958207;28;20035;-72
2021/01/01 08:39:06;;;;;;;39.38;20.17;;;2.30;99.90;;;;;;4967045;28;20106;-70
2021/01/01 08:41:39;;;;;;;40.15;20.27;;;2.30;99.90;;;;;;4979665;28;20810;-71
2021/01/01 08:44:08;;;;;;;44.65;21.58;;;2.30;99.90;;;;;;4964381;28;20114;-71
2021/01/01 08:46:33;;;;;;;40.63;20.98;;;2.40;99.90;;;;;;4967827;28;20035;-71
2021/01/01 08:49:15;;;;;;;41.03;21.58;;;2.40;99.90;;;;;;4968457;28;20038;-74
2021/01/01 08:51:41;;;;;;;40.85;21.42;;;2.40;99.90;;;;;;4966086;28;20027;-74
2021/01/01 08:54:07;;;;;;;46.55;23.08;;;2.50;99.90;;;;;;4952344;28;20219;-72
2021/01/01 08:56:33;;;;;;;43.75;22.83;;;2.50;99.90;;;;;;4966941;28;20157;-72
2021/01/01 08:59:09;;;;;;;38.63;20.05;;;2.50;99.90;;;;;;4964047;28;20042;-71
2021/01/01 09:01:34;;;;;;;;;;;2.50;99.90;;;;;;4967206;28;20085;-73
2021/01/01 09:04:02;;;;;;;40.72;20.77;;;2.60;99.90;;;;;;4964880;28;20325;-75
2021/01/01 09:06:27;;;;;;;43.97;22.25;;;2.60;99.90;;;;;;4984022;28;20042;-75
2021/01/01 09:09:07;;;;;;;44.58;22.27;;;2.70;99.90;;;;;;4966263;28;20031;-75
2021/01/01 09:11:33;;;;;;;46.22;22.27;;;2.70;99.90;;;;;;4958058;28;20039;-72
2021/01/01 09:14:04;;;;;;;58.22;30.48;;;2.60;99.90;;;;;;4962272;28;20697;-73
2021/01/01 09:16:30;;;;;;;43.92;23.33;;;2.60;99.90;;;;;;4964248;28;20078;-72
2021/01/01 09:19:08;;;;;;;48.03;23.70;;;2.60;99.90;;;;;;4964597;28;20126;-72
2021/01/01 09:21:33;;;;;;;43.60;22.55;;;2.70;99.90;;;;;;4960866;28;20125;-75
2021/01/01 09:24:40;;;;;;;43.35;22.70;;;2.70;99.90;;;;;;4965558;28;20042;-75
2021/01/01 09:27:05;;;;;;;44.03;22.85;;;2.80;99.90;;;;;;4958185;28;20089;-75
2021/01/01 09:29:31;;;;;;;46.70;22.70;;;2.80;99.90;;;;;;4958687;28;20035;-76
2021/01/01 09:31:57;;;;;;;55.17;26.20;;;2.90;99.90;;;;;;4945497;28;20730;-76
2021/01/01 09:34:23;;;;;;;42.00;21.83;;;2.90;99.90;;;;;;4963474;28;20042;-76
2021/01/01 09:36:48;;;;;;;48.97;24.02;;;2.90;99.90;;;;;;4961515;28;20097;-76
2021/01/01 09:39:14;;;;;;;41.13;22.52;;;2.90;99.90;;;;;;4955011;28;20121;-74
2021/01/01 09:41:47;;;;;;;46.00;22.83;;;2.90;99.90;;;;;;4960297;28;20581;-73
2021/01/01 09:44:13;;;;;;;41.92;21.15;;;3.00;99.90;;;;;;4959092;28;20039;-73
2021/01/01 09:46:45;;;;;;;49.65;23.10;;;3.00;99.90;;;;;;4959095;28;20027;-73
2021/01/01 09:49:11;;;;;;;42.30;22.73;;;3.00;99.90;;;;;;4964423;28;20031;-74
2021/01/01 09:51:39;;;;;;;86.30;36.75;;;3.00;99.90;;;;;;4960009;28;20559;-69
2021/01/01 09:54:05;;;;;;;158.98;93.00;;;3.10;99.90;;;;;;4959877;28;20042;-74
2021/01/01 09:56:34;;;;;;;60.80;30.20;;;3.20;99.90;;;;;;4960641;28;20085;-76
2021/01/01 09:59:00;;;;;;;41.10;22.17;;;3.30;99.90;;;;;;4951882;28;20061;-76
2021/01/01 10:01:30;;;;;;;38.05;20.75;;;3.30;99.90;;;;;;4959446;28;20125;-75
2021/01/01 10:03:56;;;;;;;40.58;21.65;;;3.30;99.90;;;;;;4953762;28;20069;-75
2021/01/01 10:06:22;;;;;;;70.45;49.42;;;3.40;99.90;;;;;;4960578;28;20039;-75
2021/01/01 10:08:48;;;;;;;53.15;33.83;;;3.50;99.90;;;;;;4966373;28;20874;-75
2021/01/01 10:11:15;;;;;;;45.55;23.92;;;3.50;99.90;;;;;;4962733;28;20101;-75
2021/01/01 10:13:41;;;;;;;41.40;22.92;;;3.50;99.90;;;;;;4963840;28;20042;-75
2021/01/01 10:16:08;;;;;;;44.63;22.33;;;3.70;99.90;;;;;;4960150;28;20138;-74
2021/01/01 10:18:34;;;;;;;44.88;22.70;;;3.70;99.90;;;;;;4953280;28;20039;-75
2021/01/01 10:20:59;;;;;;;45.70;22.30;;;3.70;99.90;;;;;;4965249;28;20026;-75
2021/01/01 10:23:25;;;;;;;44.00;23.05;;;3.90;99.90;;;;;;4957441;28;20034;-74
2021/01/01 10:25:51;;;;;;;49.45;26.17;;;4.00;99.90;;;;;;4957776;28;20033;-74
2021/01/01 10:28:18;;;;;;;43.97;23.63;;;4.00;99.90;;;;;;4958027;28;20046;-74
2021/01/01 10:30:45;;;;;;;46.08;24.42;;;3.90;99.90;;;;;;4959682;28;20034;-74
2021/01/01 10:33:11;;;;;;;41.78;22.23;;;3.90;99.90;;;;;;4960233;28;20065;-74
2021/01/01 10:35:37;;;;;;;45.42;23.48;;;3.90;99.90;;;;;;4959057;28;20502;-73
2021/01/01 10:38:03;;;;;;;45.53;24.00;;;4.00;99.90;;;;;;4958230;28;20035;-72
2021/01/01 10:40:29;;;;;;;43.92;24.73;;;3.90;99.90;;;;;;4958145;28;20042;-73
2021/01/01 10:42:54;;;;;;;45.55;23.33;;;3.90;99.90;;;;;;4957396;28;20039;-73
2021/01/01 10:45:20;;;;;;;44.95;22.75;;;4.00;99.90;;;;;;4941361;28;20038;-72
2021/01/01 10:47:47;;;;;;;42.15;22.30;;;4.10;99.90;;;;;;4947271;28;20038;-73
2021/01/01 10:50:13;;;;;;;41.15;22.10;;;4.20;99.90;;;;;;4961352;28;20065;-72
2021/01/01 10:52:39;;;;;;;48.95;23.40;;;4.40;99.90;;;;;;4963844;28;20118;-72
2021/01/01 10:55:05;;;;;;;45.15;22.40;;;4.40;99.90;;;;;;4956881;28;20041;-73
2021/01/01 10:57:32;;;;;;;46.97;23.40;;;4.40;99.90;;;;;;4945264;28;20495;-75
2021/01/01 10:59:57;;;;;;;52.80;23.85;;;4.30;99.90;;;;;;4966858;28;20037;-75
2021/01/01 11:02:23;;;;;;;44.03;23.42;;;4.20;99.90;;;;;;4977198;28;20034;-75
2021/01/01 11:04:49;;;;;;;42.67;22.30;;;4.20;99.90;;;;;;4962225;28;20476;-75
2021/01/01 11:07:15;;;;;;;41.72;22.33;;;4.20;99.90;;;;;;4964232;28;20038;-75
2021/01/01 11:09:40;;;;;;;47.72;26.95;;;4.20;99.90;;;;;;4966023;28;20033;-75
2021/01/01 11:12:07;;;;;;;52.10;23.48;;;4.20;99.90;;;;;;4977161;28;20045;-75
2021/01/01 12:25:45;;;;;;;32.35;17.20;;;4.10;99.90;;;;;;4963051;28;20061;-73
2021/01/01 12:28:13;;;;;;;36.17;20.52;;;4.30;99.90;;;;;;4964588;28;20041;-72
2021/01/01 12:30:40;;;;;;;33.22;16.85;;;4.30;99.90;;;;;;4964182;28;20402;-72
2021/01/01 12:33:08;;;;;;;38.13;19.67;;;4.20;99.90;;;;;;4963109;28;20039;-72
2021/01/01 12:35:37;;;;;;;31.75;17.58;;;4.10;99.90;;;;;;4981951;28;20611;-72
2021/01/01 12:38:06;;;;;;;41.33;19.98;;;4.10;99.90;;;;;;4962917;28;20646;-72
2021/01/01 12:40:33;;;;;;;43.30;22.65;;;4.20;99.90;;;;;;4977035;28;20157;-73
2021/01/01 12:43:03;;;;;;;31.10;16.98;;;4.30;99.90;;;;;;4961708;28;20129;-73
2021/01/01 12:45:30;;;;;;;32.45;18.20;;;4.40;99.90;;;;;;4961167;28;20035;-72
2021/01/01 12:47:56;;;;;;;33.53;17.58;;;4.40;99.90;;;;;;4961379;28;20027;-73
2021/01/01 12:50:22;;;;;;;31.55;16.98;;;4.20;99.90;;;;;;4965919;28;20039;-73
2021/01/01 12:52:55;;;;;;;33.55;17.83;;;4.20;99.90;;;;;;4958656;28;20059;-73
2021/01/01 12:55:21;;;;;;;33.33;17.27;;;4.20;99.90;;;;;;4962220;28;20030;-73
2021/01/01 12:57:47;;;;;;;35.65;17.33;;;4.30;99.90;;;;;;4963771;28;20035;-73
2021/01/01 13:00:13;;;;;;;33.42;17.75;;;4.30;99.90;;;;;;4970275;28;20124;-73
2021/01/01 13:02:39;;;;;;;35.70;18.20;;;4.40;99.90;;;;;;4963108;28;20472;-73
2021/01/01 13:05:06;;;;;;;37.72;19.15;;;4.40;99.90;;;;;;4960533;28;20039;-74
2021/01/01 13:07:31;;;;;;;35.67;18.15;;;4.20;99.90;;;;;;4968010;28;20125;-73
2021/01/01 13:10:01;;;;;;;35.88;19.70;;;4.30;99.90;;;;;;4961226;28;20117;-73
2021/01/01 13:12:26;;;;;;;39.90;18.58;;;4.20;99.90;;;;;;4949390;28;20035;-73
2021/01/01 13:14:52;;;;;;;32.47;17.63;;;4.20;99.90;;;;;;4965306;28;20109;-72
2021/01/01 13:17:18;;;;;;;39.47;19.63;;;4.20;99.90;;;;;;4962867;28;20044;-75
2021/01/01 13:19:44;;;;;;;34.53;18.65;;;4.20;99.90;;;;;;4961707;28;20122;-68
2021/01/01 13:22:10;;;;;;;31.70;16.73;;;4.10;99.90;;;;;;4965731;28;20030;-74
2021/01/01 13:24:35;;;;;;;33.90;17.70;;;4.10;99.90;;;;;;4960264;28;20484;-74
2021/01/01 13:27:02;;;;;;;35.22;17.27;;;4.20;99.90;;;;;;4962295;28;20031;-74
2021/01/01 13:29:27;;;;;;;31.55;17.75;;;4.20;99.90;;;;;;4962954;28;20031;-74
2021/01/01 13:31:53;;;;;;;33.63;17.55;;;4.20;99.90;;;;;;4944585;28;20060;-74
2021/01/01 13:34:19;;;;;;;33.80;18.63;;;4.10;99.90;;;;;;4968586;28;20626;-74
2021/01/01 13:36:50;;;;;;;34.53;17.65;;;4.10;99.90;;;;;;4961471;28;20042;-73
2021/01/01 13:39:16;;;;;;;31.65;16.58;;;4.00;99.90;;;;;;4967620;28;20845;-73
2021/01/01 13:41:42;;;;;;;34.38;18.05;;;4.00;99.90;;;;;;4944973;28;20038;-74
2021/01/01 13:44:07;;;;;;;34.75;17.73;;;4.10;99.90;;;;;;4964077;28;20046;-74
2021/01/01 13:46:34;;;;;;;31.63;16.65;;;4.10;99.90;;;;;;4964944;28;20035;-73
2021/01/01 13:49:02;;;;;;;33.78;18.15;;;4.10;99.90;;;;;;4962448;28;20050;-73
2021/01/01 13:51:37;;;;;;;34.50;17.15;;;4.30;99.90;;;;;;4963501;28;20076;-74
2021/01/01 13:54:04;;;;;;;34.40;18.45;;;4.30;99.90;;;;;;4962321;28;20034;-74